Time;durP1;ratioP1;P1;durP2;ratioP2;P2;SDS_P1;SDS_P2;PMS_P1;PMS_P2;Temp;Humidity;BMP_temperature;BMP_pressure;BME280_temperature;BME280_humidity;BME280_pressure;Samples;Min_cycle;Max_cycle;Signal;HPM_P1;HPM_P2
2022/01/09 00:00:23;;;;;;;10.20;5.28;;;;;;;-0.72;98.25;92093.41;5010323;28;20064;-60
2022/01/09 00:02:51;;;;;;;11.07;4.90;;;;;;;-0.69;98.39;92093.38;5009239;28;20812;-60
2022/01/09 00:05:18;;;;;;;8.07;4.05;;;;;;;-0.65;98.29;92075.28;5010061;28;20052;-60
2022/01/09 00:07:46;;;;;;;8.82;4.35;;;;;;;-0.63;98.24;92066.81;5007398;28;20164;-60
2022/01/09 00:10:14;;;;;;;7.70;3.80;;;;;;;-0.63;98.46;92064.13;5010297;28;20045;-60
2022/01/09 00:12:41;;;;;;;9.50;4.40;;;;;;;-0.68;99.02;92053.75;5009633;28;20037;-60
2022/01/09 00:15:09;;;;;;;6.80;3.33;;;;;;;-0.73;99.07;92051.47;5009252;28;20483;-60
2022/01/09 00:17:37;;;;;;;9.80;3.70;;;;;;;-0.71;98.76;92046.44;5007850;28;20042;-60
2022/01/09 00:20:05;;;;;;;7.63;3.88;;;;;;;-0.72;99.07;92026.84;5009687;28;20068;-60
2022/01/09 00:22:53;;;;;;;6.25;3.25;;;;;;;-0.71;99.22;92039.13;5007727;28;20046;-60
2022/01/09 00:25:21;;;;;;;6.45;3.30;;;;;;;-0.66;99.08;92037.97;5009276;28;20041;-60
2022/01/09 00:27:49;;;;;;;4.53;2.07;;;;;;;-0.68;99.03;92040.28;5008553;28;20630;-60
2022/01/09 00:30:18;;;;;;;7.82;3.85;;;;;;;-0.70;99.39;92045.31;5009589;28;20050;-60
2022/01/09 00:32:45;;;;;;;7.28;3.85;;;;;;;-0.71;99.13;92035.66;5008973;28;20186;-60
2022/01/09 00:35:13;;;;;;;7.57;3.90;;;;;;;-0.73;99.82;92036.06;5009613;28;20042;-60
2022/01/09 00:37:40;;;;;;;7.07;3.40;;;;;;;-0.73;99.97;92027.97;5008862;28;20053;-60
2022/01/09 00:40:09;;;;;;;7.70;3.83;;;;;;;-0.71;99.96;92024.91;5009415;28;20068;-60
2022/01/09 00:42:37;;;;;;;7.57;3.00;;;;;;;-0.66;100.00;92029.91;5008693;28;20050;-60
2022/01/09 00:45:05;;;;;;;6.57;3.40;;;;;;;-0.64;100.00;92030.28;5009163;28;20045;-60
2022/01/09 00:47:32;;;;;;;5.82;3.05;;;;;;;-0.63;99.82;92032.56;5008581;28;20398;-60
2022/01/09 00:49:59;;;;;;;6.25;3.22;;;;;;;-0.65;99.32;92020.63;5009371;28;20053;-60
2022/01/09 00:52:26;;;;;;;5.10;2.50;;;;;;;-0.67;99.65;92028.34;5009146;28;20042;-59
2022/01/09 00:54:52;;;;;;;6.45;2.90;;;;;;;-0.68;99.68;92027.59;5009289;28;20443;-60
2022/01/09 00:57:19;;;;;;;5.07;2.70;;;;;;;-0.72;100.00;92023.38;5009441;28;20053;-60
2022/01/09 00:59:46;;;;;;;9.27;4.15;;;;;;;-0.68;100.00;92021.44;5039156;28;20052;-60
2022/01/09 01:02:13;;;;;;;11.05;4.85;;;;;;;-0.69;100.00;92020.66;5009141;28;20050;-60
2022/01/09 01:04:40;;;;;;;6.60;2.87;;;;;;;-0.68;100.00;92019.50;5008582;28;20115;-60
2022/01/09 01:07:07;;;;;;;6.38;2.83;;;;;;;-0.68;100.00;92014.13;5009112;28;20042;-60
2022/01/09 01:09:34;;;;;;;5.47;2.85;;;;;;;-0.65;100.00;92012.56;4995082;28;20054;-59
2022/01/09 01:12:02;;;;;;;4.60;2.40;;;;;;;-0.64;100.00;92017.56;5005834;28;20647;-59
2022/01/09 01:14:31;;;;;;;6.72;3.83;;;;;;;-0.63;100.00;92024.47;5008266;28;20093;-60
2022/01/09 01:16:58;;;;;;;4.27;2.10;;;;;;;-0.62;100.00;92031.41;5040774;28;20045;-60
2022/01/09 01:19:26;;;;;;;4.20;2.28;;;;;;;-0.66;99.85;92019.13;5008295;28;20127;-59
2022/01/09 01:21:52;;;;;;;3.92;2.10;;;;;;;-0.59;100.00;92021.00;5008856;28;20046;-60
2022/01/09 01:24:21;;;;;;;4.13;2.15;;;;;;;-0.58;100.00;92020.63;5007393;28;20048;-60
2022/01/09 01:26:48;;;;;;;4.60;2.55;;;;;;;-0.59;100.00;92018.31;5006587;28;20632;-59
2022/01/09 01:29:16;;;;;;;5.13;2.60;;;;;;;-0.64;100.00;92011.41;5008999;28;20050;-60
2022/01/09 01:31:43;;;;;;;4.45;2.13;;;;;;;-0.64;100.00;92016.81;5008205;28;20425;-60
2022/01/09 01:34:12;;;;;;;4.80;2.50;;;;;;;-0.66;100.00;92013.72;5007494;28;20061;-60
2022/01/09 01:36:40;;;;;;;4.20;2.30;;;;;;;-0.64;100.00;92014.88;5008168;28;20046;-60
2022/01/09 01:39:07;;;;;;;4.57;2.45;;;;;;;-0.65;100.00;92016.00;5007430;28;20044;-60
2022/01/09 01:41:34;;;;;;;4.40;2.10;;;;;;;-0.57;100.00;92016.75;5008032;28;20049;-60
2022/01/09 01:44:01;;;;;;;4.10;2.22;;;;;;;-0.51;100.00;92009.78;5008485;28;20046;-60
2022/01/09 01:46:28;;;;;;;4.15;2.25;;;;;;;-0.44;100.00;92003.63;5008311;28;20111;-60
2022/01/09 01:48:55;;;;;;;3.45;1.80;;;;;;;-0.33;100.00;92001.63;5008619;28;20049;-60
2022/01/09 01:51:21;;;;;;;3.60;1.75;;;;;;;-0.24;100.00;92006.59;5008810;28;20046;-60
2022/01/09 01:53:49;;;;;;;3.23;1.30;;;;;;;-0.08;99.87;92006.88;5007449;28;20922;-60
2022/01/09 01:56:19;;;;;;;3.17;1.40;;;;;;;-0.08;99.32;91998.00;5007553;28;20049;-59
2022/01/09 01:58:48;;;;;;;2.20;1.10;;;;;;;-0.08;99.52;92001.50;5008016;28;20046;-59
2022/01/09 02:01:15;;;;;;;1.90;0.85;;;;;;;-0.02;99.19;92004.50;5008587;28;20069;-60
2022/01/09 02:03:42;;;;;;;2.17;1.00;;;;;;;0.03;99.33;91997.94;5007949;28;20483;-60
2022/01/09 02:06:11;;;;;;;2.00;0.90;;;;;;;0.09;98.96;92007.91;5008720;28;20041;-60
2022/01/09 02:08:38;;;;;;;1.88;0.80;;;;;;;0.12;98.55;92004.44;5001513;28;20034;-59
2022/01/09 02:11:05;;;;;;;2.17;0.80;;;;;;;0.12;98.40;92000.94;5000033;28;20042;-59
2022/01/09 02:13:32;;;;;;;2.20;0.95;;;;;;;0.08;98.25;92002.91;5011164;28;20046;-60
2022/01/09 02:16:00;;;;;;;1.90;0.80;;;;;;;0.10;98.92;92008.69;5012083;28;20052;-60
2022/01/09 02:18:28;;;;;;;1.77;0.70;;;;;;;0.10;98.72;92003.28;5010196;28;20096;-60
2022/01/09 02:20:55;;;;;;;1.60;0.60;;;;;;;0.05;99.29;92012.56;5010253;28;20041;-60
2022/01/09 02:23:21;;;;;;;1.98;0.70;;;;;;;0.07;99.30;92014.88;5012155;28;20057;-60
2022/01/09 02:25:49;;;;;;;1.70;0.70;;;;;;;0.07;98.95;92012.19;5010560;28;20743;-60
2022/01/09 02:28:17;;;;;;;1.77;0.70;;;;;;;0.14;99.48;92020.19;5011591;28;20038;-60
2022/01/09 02:30:44;;;;;;;1.50;0.60;;;;;;;0.13;98.96;92024.84;5009701;28;20072;-60
2022/01/09 02:33:16;;;;;;;1.67;0.50;;;;;;;0.12;99.28;92009.84;5011383;28;20057;-60
2022/01/09 02:35:43;;;;;;;1.40;0.50;;;;;;;0.17;98.84;92024.81;5011057;28;20103;-59
2022/01/09 02:38:10;;;;;;;1.80;0.95;;;;;;;0.14;98.82;92012.91;5011657;28;20369;-60
2022/01/09 02:40:36;;;;;;;1.50;0.60;;;;;;;0.13;99.68;92016.75;5010695;28;20072;-60
2022/01/09 02:43:03;;;;;;;1.40;0.40;;;;;;;0.14;99.20;92012.91;5010156;28;20057;-60
2022/01/09 02:45:31;;;;;;;1.40;0.50;;;;;;;0.14;98.96;92014.81;5010722;28;20057;-59
2022/01/09 02:48:00;;;;;;;1.40;0.55;;;;;;;0.26;99.42;92016.28;5011156;28;20056;-60
2022/01/09 02:50:33;;;;;;;1.45;0.52;;;;;;;0.31;98.17;92013.91;5010980;28;20046;-59
2022/01/09 02:53:12;;;;;;;1.40;0.57;;;;;;;0.35;98.81;92013.91;5011318;28;20046;-60
2022/01/09 02:55:40;;;;;;;1.40;0.60;;;;;;;0.37;98.45;92012.31;5010851;28;20056;-60
2022/01/09 02:58:07;;;;;;;1.50;0.68;;;;;;;0.39;98.42;92007.31;5011129;28;20038;-60
2022/01/09 03:00:38;;;;;;;1.88;0.80;;;;;;;0.41;97.83;92006.16;5010780;28;20046;-59
2022/01/09 03:03:05;;;;;;;1.60;0.57;;;;;;;0.39;98.27;91999.22;5011112;28;20042;-60
2022/01/09 03:05:32;;;;;;;1.50;0.70;;;;;;;0.41;98.15;92004.22;5010542;28;20046;-60
2022/01/09 03:07:59;;;;;;;1.53;0.57;;;;;;;0.47;98.60;92009.94;5010774;28;20113;-60
2022/01/09 03:10:26;;;;;;;1.30;0.45;;;;;;;0.49;97.59;92016.47;5010553;28;20483;-60
2022/01/09 03:12:58;;;;;;;1.60;0.82;;;;;;;0.56;96.87;92019.13;5010734;28;20388;-60
2022/01/09 03:15:25;;;;;;;1.50;0.60;;;;;;;0.57;96.85;92014.50;5009904;28;20056;-59
2022/01/09 03:17:53;;;;;;;1.50;0.63;;;;;;;0.65;96.61;92013.25;5010532;28;20037;-60
2022/01/09 03:20:22;;;;;;;1.60;0.70;;;;;;;0.64;96.78;92011.72;5009538;28;20048;-60
2022/01/09 03:22:50;;;;;;;1.30;0.30;;;;;;;0.72;96.19;92013.19;5009481;28;20835;-60
2022/01/09 03:25:17;;;;;;;1.85;0.90;;;;;;;0.71;96.89;92005.50;5010875;28;20056;-60
2022/01/09 03:27:45;;;;;;;1.48;0.50;;;;;;;0.78;96.25;92019.69;5010239;28;20381;-60
2022/01/09 03:30:12;;;;;;;1.30;0.47;;;;;;;0.82;95.86;92011.56;5010689;28;20052;-60
2022/01/09 03:32:41;;;;;;;1.50;0.60;;;;;;;0.80;96.13;92005.78;5010083;28;20048;-60
2022/01/09 03:35:11;;;;;;;1.50;0.60;;;;;;;0.76;96.69;92008.50;5010805;28;20103;-60
2022/01/09 03:37:40;;;;;;;1.40;0.60;;;;;;;0.76;96.15;92015.84;5009788;28;20041;-60
2022/01/09 03:40:18;;;;;;;1.98;0.65;;;;;;;0.74;96.94;92004.69;5010477;28;20045;-60
2022/01/09 03:42:51;;;;;;;1.40;0.60;;;;;;;0.68;96.79;92014.38;5009467;28;20083;-60
2022/01/09 03:45:20;;;;;;;1.20;0.40;;;;;;;0.64;96.80;92024.44;5042179;28;20076;-60
2022/01/09 03:47:47;;;;;;;1.20;0.40;;;;;;;0.65;96.75;92034.84;5009402;28;20402;-60
2022/01/09 03:50:16;;;;;;;1.40;0.63;;;;;;;0.64;97.06;92033.31;5010239;28;20058;-60
2022/01/09 03:52:43;;;;;;;1.20;0.40;;;;;;;0.65;96.13;92042.19;5009608;28;20434;-60
2022/01/09 03:55:12;;;;;;;1.45;0.55;;;;;;;0.66;96.08;92054.50;5010258;28;20137;-60
2022/01/09 03:57:39;;;;;;;1.17;0.30;;;;;;;0.65;95.93;92061.09;5009369;28;20079;-60
2022/01/09 04:00:11;;;;;;;1.27;0.32;;;;;;;0.68;95.64;92061.03;5008876;28;20041;-60
2022/01/09 04:02:38;;;;;;;1.42;0.73;;;;;;;0.79;94.54;92060.97;5009486;28;20042;-60
2022/01/09 04:05:06;;;;;;;1.50;0.40;;;;;;;0.79;94.00;92060.97;5009840;28;20042;-60
2022/01/09 04:07:33;;;;;;;1.30;0.50;;;;;;;0.77;94.04;92066.75;5009469;28;20115;-59
2022/01/09 04:10:00;;;;;;;1.10;0.37;;;;;;;0.76;94.18;92081.41;5009638;28;20105;-60
2022/01/09 04:12:35;;;;;;;1.30;0.40;;;;;;;0.69;94.19;92076.09;5009567;28;20048;-59
2022/01/09 04:15:07;;;;;;;1.23;0.40;;;;;;;0.64;94.71;92097.34;5009290;28;20052;-60
2022/01/09 04:17:47;;;;;;;1.30;0.40;;;;;;;0.49;95.45;92102.84;5009424;28;20365;-59
2022/01/09 04:20:14;;;;;;;1.30;0.40;;;;;;;0.47;95.84;92112.50;5008604;28;20045;-60
2022/01/09 04:22:41;;;;;;;1.20;0.30;;;;;;;0.39;96.03;92123.34;5009424;28;20057;-60
2022/01/09 04:25:08;;;;;;;1.52;0.70;;;;;;;0.32;96.23;92131.47;5009708;28;20046;-60
2022/01/09 04:27:36;;;;;;;1.60;0.60;;;;;;;0.15;96.46;92130.41;5009250;28;20049;-60
2022/01/09 04:30:04;;;;;;;1.85;0.80;;;;;;;-0.02;97.26;92158.22;5009373;28;20048;-60
2022/01/09 04:32:32;;;;;;;1.63;0.90;;;;;;;0.05;98.21;92168.97;5008921;28;20422;-60
2022/01/09 04:34:59;;;;;;;1.23;0.40;;;;;;;0.07;97.90;92172.06;5007747;28;20479;-61
2022/01/09 04:37:26;;;;;;;1.73;0.70;;;;;;;-0.02;98.44;92180.56;5009090;28;20048;-60
2022/01/09 04:39:54;;;;;;;2.65;1.05;;;;;;;0.03;98.77;92192.13;5008115;28;20064;-60
2022/01/09 04:42:26;;;;;;;1.58;0.70;;;;;;;0.02;98.23;92207.53;5009458;28;20057;-60
2022/01/09 04:44:53;;;;;;;1.50;0.70;;;;;;;0.08;98.44;92214.06;5007156;28;20038;-61
2022/01/09 04:47:20;;;;;;;1.80;0.80;;;;;;;-0.01;98.45;92236.03;5009463;28;20505;-60
2022/01/09 04:49:49;;;;;;;1.50;0.70;;;;;;;-0.24;99.14;92246.50;5008064;28;20398;-61
2022/01/09 04:52:19;;;;;;;1.50;0.75;;;;;;;-0.20;98.95;92241.88;5009156;28;20050;-60
2022/01/09 04:54:46;;;;;;;1.80;0.82;;;;;;;-0.27;99.30;92258.06;5008552;28;20112;-60
2022/01/09 04:57:13;;;;;;;1.50;0.60;;;;;;;-0.26;99.63;92262.31;5009483;28;20045;-61
2022/01/09 04:59:40;;;;;;;3.67;0.80;;;;;;;-0.30;100.00;92267.69;5008745;28;20058;-60
2022/01/09 05:02:07;;;;;;;1.30;0.50;;;;;;;-0.31;100.00;92270.78;5009527;28;20434;-61
2022/01/09 05:04:34;;;;;;;1.50;0.63;;;;;;;-0.38;100.00;92273.47;5008751;28;20048;-60
2022/01/09 05:07:01;;;;;;;1.30;0.40;;;;;;;-0.35;100.00;92276.16;5008670;28;20382;-60
2022/01/09 05:09:28;;;;;;;1.30;0.43;;;;;;;-0.27;100.00;92282.31;5008321;28;20050;-60
2022/01/09 05:11:54;;;;;;;1.30;0.50;;;;;;;-0.21;100.00;92278.06;5008814;28;20049;-61
2022/01/09 05:14:21;;;;;;;1.60;0.60;;;;;;;-0.25;100.00;92282.69;5007375;28;20115;-61
2022/01/09 05:16:49;;;;;;;2.58;1.10;;;;;;;-0.21;100.00;92281.53;5007855;28;20388;-60
2022/01/09 05:19:19;;;;;;;1.30;0.50;;;;;;;-0.21;99.80;92292.31;5007852;28;20042;-61
2022/01/09 05:21:48;;;;;;;1.35;0.50;;;;;;;-0.17;99.86;92297.69;5008421;28;20041;-60
2022/01/09 05:24:16;;;;;;;1.40;0.40;;;;;;;-0.11;99.45;92300.78;5008856;28;20050;-59
2022/01/09 05:26:43;;;;;;;1.52;0.60;;;;;;;-0.02;100.00;92309.22;5008301;28;20076;-61
2022/01/09 05:29:10;;;;;;;1.67;0.80;;;;;;;0.01;99.73;92308.47;5009079;28;20147;-61
2022/01/09 05:31:37;;;;;;;1.80;0.80;;;;;;;-0.02;99.32;92306.53;5008463;28;20048;-60
2022/01/09 05:34:04;;;;;;;1.50;0.50;;;;;;;0.10;99.33;92316.94;5008847;28;20042;-60
2022/01/09 05:36:31;;;;;;;1.50;0.60;;;;;;;0.09;98.03;92310.00;5007126;28;20042;-60
2022/01/09 05:38:58;;;;;;;1.48;0.55;;;;;;;0.08;98.27;92311.16;5009272;28;20050;-60
2022/01/09 05:41:25;;;;;;;2.22;1.10;;;;;;;0.13;98.26;92315.38;5008721;28;20309;-60
2022/01/09 05:43:52;;;;;;;1.80;0.80;;;;;;;0.18;98.13;92328.47;5008434;28;20438;-60
2022/01/09 05:46:18;;;;;;;1.75;0.73;;;;;;;0.20;97.58;92331.53;5008356;28;20034;-60
2022/01/09 05:48:45;;;;;;;1.97;0.90;;;;;;;0.18;98.49;92329.25;5011824;28;20056;-60
2022/01/09 05:51:12;;;;;;;2.17;0.80;;;;;;;0.21;97.79;92332.31;5012728;28;20048;-60
2022/01/09 05:53:39;;;;;;;1.70;0.80;;;;;;;0.16;96.54;92347.75;5012131;28;20068;-60
2022/01/09 05:56:05;;;;;;;1.52;0.63;;;;;;;0.24;96.82;92336.94;5011172;28;20053;-60
2022/01/09 05:58:34;;;;;;;1.80;0.70;;;;;;;0.21;97.56;92343.88;5012214;28;20423;-60
2022/01/09 06:01:03;;;;;;;2.80;1.00;;;;;;;0.21;97.32;92351.97;5012214;28;20354;-61
2022/01/09 06:03:30;;;;;;;1.90;0.80;;;;;;;0.22;96.98;92352.75;5012081;28;20578;-60
2022/01/09 06:05:57;;;;;;;1.60;0.80;;;;;;;0.24;97.16;92359.28;5011755;28;20042;-60
2022/01/09 06:08:25;;;;;;;2.03;0.52;;;;;;;0.24;96.12;92359.28;5011961;28;20259;-59
2022/01/09 06:10:52;;;;;;;2.25;0.80;;;;;;;0.19;95.68;92360.44;5011918;28;20052;-60
2022/01/09 06:13:19;;;;;;;1.30;0.50;;;;;;;0.21;96.68;92370.84;5011745;28;20042;-61
2022/01/09 06:15:46;;;;;;;1.70;0.70;;;;;;;0.23;95.95;92363.16;5011284;28;20495;-61
2022/01/09 06:18:13;;;;;;;1.60;0.70;;;;;;;0.21;95.12;92365.47;5012021;28;20050;-60
2022/01/09 06:20:40;;;;;;;1.65;0.63;;;;;;;0.26;94.51;92378.53;5011518;28;20048;-61
2022/01/09 06:23:07;;;;;;;13.10;5.68;;;;;;;0.35;95.55;92388.97;5011493;28;20793;-60
2022/01/09 06:25:33;;;;;;;2.87;0.70;;;;;;;0.29;94.40;92385.88;5010172;28;20487;-60
2022/01/09 06:28:00;;;;;;;2.20;0.80;;;;;;;0.26;93.99;92392.03;5043050;28;20041;-60
2022/01/09 06:30:27;;;;;;;3.40;1.10;;;;;;;0.25;94.34;92400.53;5011488;28;20145;-60
2022/01/09 06:32:54;;;;;;;1.70;0.65;;;;;;;0.27;94.49;92393.59;5011507;28;20041;-61
2022/01/09 06:35:21;;;;;;;1.70;0.70;;;;;;;0.27;93.30;92398.97;5011869;28;20066;-60
2022/01/09 06:37:48;;;;;;;1.73;0.70;;;;;;;0.29;94.57;92398.59;5009817;28;20045;-60
2022/01/09 06:40:16;;;;;;;2.40;0.60;;;;;;;0.27;94.71;92412.47;5010312;28;20076;-60
2022/01/09 06:42:43;;;;;;;2.28;0.70;;;;;;;0.25;92.84;92408.63;5011319;28;20046;-60
2022/01/09 06:45:10;;;;;;;2.03;0.60;;;;;;;0.31;93.82;92415.94;5026197;28;20072;-60
2022/01/09 06:47:36;;;;;;;3.45;1.00;;;;;;;0.29;93.18;92426.34;5011017;28;20050;-60
2022/01/09 06:50:04;;;;;;;2.83;1.10;;;;;;;0.29;93.46;92422.88;5011275;28;20410;-60
2022/01/09 06:52:31;;;;;;;2.38;0.73;;;;;;;0.19;93.83;92427.88;5042820;28;20042;-60
2022/01/09 06:54:58;;;;;;;1.65;0.80;;;;;;;0.28;93.27;92430.22;5026233;28;20050;-60
2022/01/09 06:57:24;;;;;;;1.80;0.68;;;;;;;0.28;92.17;92429.44;5025758;28;20046;-59
2022/01/09 06:59:51;;;;;;;3.95;1.50;;;;;;;0.22;92.97;92423.63;5042288;28;20037;-60
2022/01/09 07:02:18;;;;;;;2.60;1.10;;;;;;;0.28;94.24;92437.53;5005315;28;20051;-60
2022/01/09 07:04:45;;;;;;;2.95;0.80;;;;;;;0.27;92.91;92447.56;5007535;28;20041;-59
2022/01/09 07:07:11;;;;;;;2.10;0.98;;;;;;;0.26;91.93;92446.00;5011192;28;20048;-60
2022/01/09 07:09:38;;;;;;;2.05;0.70;;;;;;;0.19;92.48;92452.16;5010710;28;20042;-59
2022/01/09 07:12:07;;;;;;;2.63;0.80;;;;;;;0.20;93.61;92455.63;5010712;28;20041;-60
2022/01/09 07:14:33;;;;;;;2.67;1.00;;;;;;;0.25;92.91;92462.59;5010377;28;20068;-59
2022/01/09 07:17:01;;;;;;;3.13;1.10;;;;;;;0.28;93.53;92461.81;5010565;28;20148;-60
2022/01/09 07:19:28;;;;;;;3.03;1.20;;;;;;;0.24;91.71;92458.34;5010248;28;20116;-59
2022/01/09 07:21:55;;;;;;;6.03;2.05;;;;;;;0.28;93.27;92469.91;5010654;28;20046;-60
2022/01/09 07:24:22;;;;;;;4.30;1.23;;;;;;;0.22;93.43;92484.94;5010985;28;20056;-60
2022/01/09 07:26:49;;;;;;;5.07;1.30;;;;;;;0.04;94.65;92484.91;5009736;28;20599;-59
2022/01/09 07:29:16;;;;;;;4.05;1.02;;;;;;;0.08;94.53;92493.78;5010579;28;20068;-60
2022/01/09 07:31:43;;;;;;;2.10;0.90;;;;;;;0.05;95.08;92497.25;5010002;28;20045;-59
2022/01/09 07:34:09;;;;;;;3.65;0.90;;;;;;;0.02;94.75;92504.19;5010231;28;20042;-60
2022/01/09 07:36:36;;;;;;;3.63;1.00;;;;;;;0.01;95.03;92516.13;5009970;28;20524;-59
2022/01/09 07:39:03;;;;;;;3.50;0.93;;;;;;;0.06;95.33;92525.75;5009203;28;20038;-60
2022/01/09 07:41:30;;;;;;;3.35;1.00;;;;;;;0.02;94.78;92528.47;5009857;28;20068;-60
2022/01/09 07:43:56;;;;;;;5.28;1.00;;;;;;;0.01;94.63;92545.03;5009962;28;20418;-60
2022/01/09 07:46:23;;;;;;;3.85;1.00;;;;;;;0.07;94.93;92554.28;5008410;28;20054;-59
2022/01/09 07:48:50;;;;;;;5.55;2.63;;;;;;;0.15;95.12;92551.22;5041742;28;20056;-59
2022/01/09 07:51:17;;;;;;;6.23;2.50;;;;;;;0.26;95.32;92556.63;5010171;28;20060;-60
2022/01/09 07:53:43;;;;;;;4.18;1.58;;;;;;;0.11;95.24;92569.31;5008542;28;20052;-60
2022/01/09 07:56:10;;;;;;;8.07;3.15;;;;;;;-0.01;96.57;92581.22;5009950;28;20046;-60
2022/01/09 07:58:37;;;;;;;6.63;2.80;;;;;;;0.00;97.53;92592.81;5009303;28;20095;-60
2022/01/09 08:01:04;;;;;;;7.22;3.13;;;;;;;-0.08;97.66;92593.91;5009928;28;20104;-60
2022/01/09 08:03:31;;;;;;;7.17;2.10;;;;;;;-0.04;97.99;92598.19;5008078;28;20049;-60
2022/01/09 08:05:58;;;;;;;3.20;1.35;;;;;;;-0.30;99.49;92603.84;5010251;28;20045;-61
2022/01/09 08:08:24;;;;;;;2.53;1.27;;;;;;;-0.11;99.66;92605.47;5009381;28;20520;-59
2022/01/09 08:10:52;;;;;;;5.93;2.58;;;;;;;-0.40;99.80;92621.53;5008060;28;20037;-60
2022/01/09 08:13:19;;;;;;;4.38;1.60;;;;;;;-0.25;100.00;92617.75;5009720;28;20130;-62
2022/01/09 08:15:47;;;;;;;2.20;1.00;;;;;;;-0.19;99.21;92615.47;5007586;28;20038;-61
2022/01/09 08:18:13;;;;;;;5.75;1.70;;;;;;;-0.01;97.85;92618.22;5009508;28;20483;-61
2022/01/09 08:20:40;;;;;;;6.30;2.33;;;;;;;0.08;96.79;92623.25;5009423;28;20072;-60
2022/01/09 08:23:07;;;;;;;3.83;1.20;;;;;;;0.11;93.96;92633.28;5009429;28;20061;-61
2022/01/09 08:25:35;;;;;;;2.97;1.05;;;;;;;0.09;93.66;92625.56;5008869;28;20050;-60
2022/01/09 08:28:02;;;;;;;2.70;1.00;;;;;;;0.10;93.30;92626.34;5009432;28;20042;-61
2022/01/09 08:30:28;;;;;;;3.10;1.60;;;;;;;0.29;92.23;92634.09;5009259;28;20168;-60
2022/01/09 08:32:55;;;;;;;2.50;1.20;;;;;;;0.43;92.50;92644.16;5009769;28;20052;-61
2022/01/09 08:35:22;;;;;;;3.25;1.00;;;;;;;0.24;91.50;92636.41;5009204;28;20041;-55
2022/01/09 08:37:49;;;;;;;7.78;1.38;;;;;;;0.35;91.91;92651.47;5009464;28;20144;-60
2022/01/09 08:40:22;;;;;;;3.67;1.10;;;;;;;0.31;90.78;92653.38;5009276;28;20054;-61
2022/01/09 08:42:50;;;;;;;3.92;0.70;;;;;;;0.47;89.51;92654.97;5008314;28;21595;-60
2022/01/09 08:45:17;;;;;;;4.10;1.08;;;;;;;0.41;88.50;92653.81;5007707;28;20079;-60
2022/01/09 08:47:44;;;;;;;6.22;2.10;;;;;;;0.47;88.46;92661.13;5008995;28;20411;-60
2022/01/09 08:50:13;;;;;;;7.47;1.80;;;;;;;0.63;88.78;92666.19;5009188;28;20045;-60
2022/01/09 08:52:40;;;;;;;6.13;2.00;;;;;;;0.48;88.23;92662.66;5008941;28;20060;-60
2022/01/09 08:55:07;;;;;;;5.32;1.70;;;;;;;0.66;89.43;92673.50;5008904;28;20044;-60
2022/01/09 08:57:34;;;;;;;4.45;1.20;;;;;;;0.85;88.23;92669.69;5008595;28;20060;-60
2022/01/09 09:00:01;;;;;;;4.72;1.55;;;;;;;1.28;87.13;92666.22;5007628;28;20065;-60
2022/01/09 09:02:28;;;;;;;9.30;2.80;;;;;;;1.17;88.57;92672.41;5008904;28;20512;-61
2022/01/09 09:04:55;;;;;;;11.70;7.47;;;;;;;0.79;87.55;92677.41;5009234;28;20328;-60
2022/01/09 09:07:24;;;;;;;6.07;2.40;;;;;;;1.15;87.51;92679.38;5040547;28;20049;-60
2022/01/09 09:09:52;;;;;;;6.68;2.40;;;;;;;1.30;85.38;92683.59;5008435;28;20865;-60
2022/01/09 09:12:19;;;;;;;28.35;6.35;;;;;;;1.45;86.87;92686.28;5009239;28;20057;-61
2022/01/09 09:14:46;;;;;;;6.97;2.10;;;;;;;1.30;85.42;92699.03;5008450;28;20042;-60
2022/01/09 09:17:14;;;;;;;12.67;3.97;;;;;;;0.99;84.29;92706.75;5008845;28;20049;-60
2022/01/09 09:19:41;;;;;;;8.30;2.47;;;;;;;0.94;85.91;92712.53;5008296;28;20049;-60
2022/01/09 09:22:08;;;;;;;26.20;4.50;;;;;;;0.94;85.80;92718.69;5010889;28;20050;-60
2022/01/09 09:24:35;;;;;;;6.30;1.70;;;;;;;0.81;86.07;92719.47;5012601;28;20045;-60
2022/01/09 09:27:02;;;;;;;7.10;1.83;;;;;;;0.67;87.98;92720.97;5012783;28;20471;-61
2022/01/09 09:29:28;;;;;;;4.87;1.70;;;;;;;0.76;89.94;92724.06;5012264;28;20038;-60
2022/01/09 09:31:56;;;;;;;4.90;1.85;;;;;;;1.10;89.52;92723.72;5012695;28;20046;-60
2022/01/09 09:34:22;;;;;;;5.07;1.60;;;;;;;1.74;83.75;92727.59;5012230;28;20038;-58
2022/01/09 09:36:50;;;;;;;4.68;1.23;;;;;;;1.19;83.95;92726.06;5011416;28;20111;-61
2022/01/09 09:39:16;;;;;;;4.68;1.55;;;;;;;0.84;87.40;92721.38;4998367;28;20080;-61
2022/01/09 09:41:43;;;;;;;4.60;1.60;;;;;;;1.81;85.43;92732.97;5011070;28;20434;-60
2022/01/09 09:44:12;;;;;;;5.60;2.17;;;;;;;2.57;86.09;92728.13;5012391;28;20058;-61
2022/01/09 09:46:39;;;;;;;4.97;1.80;;;;;;;3.33;79.87;92736.59;5012043;28;20054;-61
2022/01/09 09:49:06;;;;;;;4.25;1.25;;;;;;;5.31;72.45;92724.38;5010626;28;20064;-61
2022/01/09 09:51:33;;;;;;;5.72;1.35;;;;;;;5.48;69.02;92726.06;5011774;28;20042;-59
2022/01/09 09:54:00;;;;;;;6.47;1.30;;;;;;;3.96;72.64;92731.03;5012083;28;20042;-60
2022/01/09 09:56:26;;;;;;;5.18;1.70;;;;;;;3.26;78.28;92737.44;5010754;28;20052;-58
2022/01/09 09:58:58;;;;;;;6.50;2.03;;;;;;;2.62;79.64;92749.41;5010859;28;20064;-58
2022/01/09 10:01:33;;;;;;;7.30;2.50;;;;;;;1.01;85.76;92753.06;5011927;28;20057;-60
2022/01/09 10:04:08;;;;;;;8.27;2.90;;;;;;;0.78;87.80;92753.38;5012227;28;20045;-61
2022/01/09 10:06:38;;;;;;;12.30;5.17;;;;;;;1.28;86.42;92750.78;5011862;28;20046;-60
2022/01/09 10:09:24;;;;;;;7.18;2.40;;;;;;;0.70;87.86;92746.41;5011703;28;20052;-61
2022/01/09 10:11:58;;;;;;;7.18;2.58;;;;;;;1.07;88.28;92743.44;5011318;28;20333;-60
2022/01/09 10:14:30;;;;;;;6.03;1.50;;;;;;;1.34;85.50;92738.41;5010625;28;20049;-60
2022/01/09 10:17:19;;;;;;;7.95;2.08;;;;;;;1.52;85.50;92735.72;5010926;28;20050;-60
2022/01/09 10:19:54;;;;;;;6.90;2.40;;;;;;;1.55;83.80;92726.84;5010289;28;20406;-60
2022/01/09 10:22:25;;;;;;;8.05;2.60;;;;;;;1.11;84.30;92730.69;5010662;28;20046;-61
2022/01/09 10:24:53;;;;;;;5.47;2.30;;;;;;;1.26;85.18;92734.16;5009766;28;20150;-60
2022/01/09 10:27:47;;;;;;;6.57;2.17;;;;;;;1.72;85.41;92729.91;5041823;28;20050;-61
2022/01/09 10:30:14;;;;;;;9.70;3.65;;;;;;;2.11;84.17;92745.28;5009152;28;20038;-60
2022/01/09 10:32:41;;;;;;;18.73;7.30;;;;;;;1.95;81.71;92735.69;5009436;28;20484;-60
2022/01/09 10:35:16;;;;;;;9.38;2.50;;;;;;;1.95;83.43;92732.97;5010093;28;20049;-61
2022/01/09 10:37:46;;;;;;;4.65;1.67;;;;;;;2.07;80.26;92731.00;4997786;28;20402;-60
2022/01/09 10:40:29;;;;;;;6.22;2.50;;;;;;;2.52;81.09;92732.03;5010733;28;20061;-61
2022/01/09 10:43:14;;;;;;;5.80;1.55;;;;;;;2.09;80.70;92734.09;5008216;28;20156;-61
2022/01/09 10:45:46;;;;;;;6.30;3.63;;;;;;;2.31;80.97;92727.44;5009586;28;20387;-61
2022/01/09 10:48:19;;;;;;;8.63;5.57;;;;;;;3.46;78.88;92724.13;5010066;28;20046;-61
2022/01/09 10:50:47;;;;;;;6.78;2.17;;;;;;;3.98;76.24;92721.34;5009486;28;20068;-61
2022/01/09 10:53:17;;;;;;;5.72;2.22;;;;;;;3.51;75.13;92725.63;5009666;28;20053;-61
2022/01/09 10:55:46;;;;;;;6.47;2.13;;;;;;;3.27;78.84;92721.94;5008429;28;20503;-61
2022/01/09 10:58:21;;;;;;;7.40;1.70;;;;;;;3.27;77.09;92722.69;5009903;28;20048;-61
2022/01/09 11:01:25;;;;;;;4.95;1.55;;;;;;;3.65;76.12;92720.06;5009152;28;20044;-61
2022/01/09 11:04:01;;;;;;;6.03;1.63;;;;;;;3.57;79.82;92715.88;5009182;28;20724;-61
2022/01/09 11:06:31;;;;;;;6.15;1.58;;;;;;;3.04;76.38;92708.91;5009550;28;20053;-60
2022/01/09 11:09:00;;;;;;;6.70;2.60;;;;;;;3.82;74.51;92710.22;5010070;28;20497;-60
2022/01/09 11:11:35;;;;;;;7.27;2.80;;;;;;;4.12;78.13;92709.53;5009533;28;20513;-60
2022/01/09 11:14:04;;;;;;;11.25;2.72;;;;;;;4.34;73.67;92707.38;4971096;28;1125634;-60
2022/01/09 11:16:32;;;;;;;8.23;2.28;;;;;;;3.69;74.52;92723.53;5010425;28;20107;-60
2022/01/09 11:19:05;;;;;;;17.37;5.20;;;;;;;4.00;78.42;92716.28;5010963;28;20153;-60
2022/01/09 11:21:33;;;;;;;12.75;3.42;;;;;;;3.55;78.22;92724.41;5010514;28;20053;-60
2022/01/09 11:24:09;;;;;;;8.05;3.08;;;;;;;2.59;81.03;92720.38;5010823;28;20111;-60
2022/01/09 11:26:59;;;;;;;8.60;2.60;;;;;;;1.95;85.07;92719.44;5010198;28;20056;-60
2022/01/09 11:29:55;;;;;;;11.02;3.90;;;;;;;1.58;86.94;92736.88;5010010;28;20066;-60
2022/01/09 11:33:04;;;;;;;9.80;3.70;;;;;;;1.08;90.57;92731.44;5000547;28;20085;-60
2022/01/09 11:35:52;;;;;;;8.32;3.85;;;;;;;0.98;89.49;92740.31;5009253;28;20099;-60
2022/01/09 11:38:51;;;;;;;6.00;2.85;;;;;;;1.09;89.86;92735.72;5007913;28;20059;-60
2022/01/09 11:41:24;;;;;;;4.07;2.05;;;;;;;0.66;90.89;92719.41;5010847;28;21802;-60
2022/01/09 11:43:58;;;;;;;4.68;2.00;;;;;;;1.60;89.46;92718.31;5008372;28;20858;-60
2022/01/09 11:46:27;;;;;;;6.15;2.50;;;;;;;1.99;86.37;92706.69;5008930;28;20565;-59